Time;durP1;ratioP1;P1;durP2;ratioP2;P2;SDS_P1;SDS_P2;PMS_P1;PMS_P2;Temp;Humidity;BMP_temperature;BMP_pressure;BME280_temperature;BME280_humidity;BME280_pressure;Samples;Min_cycle;Max_cycle;Signal;HPM_P1;HPM_P2
2023/12/17 00:01:56;;;;;;;19.53;9.97;;;8.90;85.10;;;;;;5028117;28;20378;-75
2023/12/17 00:04:21;;;;;;;24.93;11.73;;;8.90;85.00;;;;;;5028793;28;20128;-76
2023/12/17 00:06:47;;;;;;;19.90;11.33;;;8.90;85.10;;;;;;5028557;28;20385;-76
2023/12/17 00:09:13;;;;;;;18.00;9.73;;;8.90;85.10;;;;;;5028437;28;20202;-76
2023/12/17 00:11:42;;;;;;;20.33;11.00;;;8.90;85.00;;;;;;5011512;28;20076;-75
2023/12/17 00:14:12;;;;;;;21.33;11.87;;;9.00;85.00;;;;;;5009193;28;20050;-75
2023/12/17 00:16:37;;;;;;;21.27;10.27;;;8.90;85.10;;;;;;5007543;28;20058;-75
2023/12/17 00:19:03;;;;;;;17.47;10.20;;;8.90;85.10;;;;;;5025901;28;20064;-76
2023/12/17 00:21:29;;;;;;;19.50;11.33;;;8.90;85.00;;;;;;5027572;28;20098;-76
2023/12/17 00:23:54;;;;;;;18.67;9.70;;;8.90;85.00;;;;;;5026925;28;20049;-75
2023/12/17 00:26:20;;;;;;;23.07;14.33;;;9.00;85.00;;;;;;5026989;28;20045;-77
2023/12/17 00:28:45;;;;;;;17.67;11.23;;;8.90;85.00;;;;;;5027534;28;20053;-76
2023/12/17 00:31:11;;;;;;;19.03;10.07;;;8.90;84.80;;;;;;5028211;28;20057;-76
2023/12/17 00:33:37;;;;;;;21.77;10.77;;;9.00;85.00;;;;;;5014083;28;20058;-76
2023/12/17 00:36:03;;;;;;;14.70;9.77;;;9.00;84.90;;;;;;5007188;28;20500;-76
2023/12/17 00:38:28;;;;;;;25.10;15.03;;;9.00;85.00;;;;;;5008241;28;20532;-77
2023/12/17 00:40:54;;;;;;;21.83;11.60;;;9.00;84.90;;;;;;5007676;28;20137;-76
2023/12/17 00:43:20;;;;;;;15.73;10.27;;;9.00;84.90;;;;;;5013942;28;20049;-78
2023/12/17 00:45:45;;;;;;;18.23;9.77;;;9.00;84.80;;;;;;5022978;28;20058;-75
2023/12/17 00:48:11;;;;;;;19.27;11.30;;;9.00;84.70;;;;;;5008579;28;20046;-76
2023/12/17 00:50:36;;;;;;;21.47;10.13;;;9.00;84.70;;;;;;5023992;28;20572;-75
2023/12/17 00:53:02;;;;;;;19.33;11.67;;;9.00;84.80;;;;;;5027777;28;20408;-75
2023/12/17 00:55:28;;;;;;;16.37;10.07;;;9.00;84.90;;;;;;5027504;28;20053;-75
2023/12/17 00:57:53;;;;;;;21.37;10.13;;;9.00;84.90;;;;;;5027814;28;20061;-76
2023/12/17 01:00:19;;;;;;;18.43;9.23;;;9.00;85.00;;;;;;5027546;28;20049;-75
2023/12/17 01:02:45;;;;;;;17.47;9.47;;;9.00;84.90;;;;;;5024050;28;20065;-75
2023/12/17 01:05:12;;;;;;;16.23;10.20;;;9.00;85.00;;;;;;5014548;28;20045;-75
2023/12/17 01:07:37;;;;;;;15.03;9.53;;;9.00;85.00;;;;;;5023105;28;20175;-75
2023/12/17 01:10:04;;;;;;;16.30;9.27;;;9.00;85.00;;;;;;5025775;28;20120;-73
2023/12/17 01:12:29;;;;;;;15.47;11.90;;;9.00;84.90;;;;;;5027580;28;20041;-77
2023/12/17 01:14:55;;;;;;;17.37;9.63;;;9.00;84.80;;;;;;5026326;28;20056;-76
2023/12/17 01:17:21;;;;;;;17.13;9.90;;;9.00;84.80;;;;;;5026318;28;20085;-76
2023/12/17 01:19:46;;;;;;;14.60;9.40;;;9.00;84.70;;;;;;5025912;28;20140;-76
2023/12/17 01:22:12;;;;;;;19.40;9.40;;;9.00;84.70;;;;;;5026339;28;20045;-76
2023/12/17 01:24:39;;;;;;;13.40;9.77;;;9.00;84.80;;;;;;5026642;28;20133;-75
2023/12/17 01:27:05;;;;;;;19.70;11.07;;;9.00;84.80;;;;;;5026992;28;20041;-77
2023/12/17 01:29:30;;;;;;;16.00;9.23;;;9.00;84.70;;;;;;5026922;28;20064;-76
2023/12/17 01:31:57;;;;;;;13.90;9.30;;;9.00;84.80;;;;;;5026424;28;20045;-76
2023/12/17 01:34:23;;;;;;;16.17;9.80;;;9.00;84.80;;;;;;5007187;28;20074;-76
2023/12/17 01:36:49;;;;;;;17.83;9.03;;;9.00;85.00;;;;;;5006808;28;20046;-76
2023/12/17 01:39:16;;;;;;;16.03;9.93;;;9.00;85.00;;;;;;5007526;28;20056;-76
2023/12/17 01:41:42;;;;;;;22.83;10.60;;;9.00;84.90;;;;;;5011874;28;20079;-75
2023/12/17 01:44:08;;;;;;;17.87;8.97;;;9.00;85.00;;;;;;5025954;28;20041;-76
2023/12/17 01:46:34;;;;;;;15.70;9.57;;;9.00;85.00;;;;;;5024412;28;20049;-74
2023/12/17 01:49:00;;;;;;;15.00;9.03;;;9.00;85.00;;;;;;5025972;28;20073;-75
2023/12/17 01:51:27;;;;;;;14.73;9.33;;;9.00;85.00;;;;;;5026128;28;20135;-75
2023/12/17 01:53:53;;;;;;;15.40;9.63;;;9.00;85.00;;;;;;5025980;28;20049;-76
2023/12/17 01:56:19;;;;;;;23.93;9.33;;;9.00;85.00;;;;;;5026248;28;20045;-76
2023/12/17 01:58:45;;;;;;;14.13;11.93;;;9.00;85.00;;;;;;5025381;28;20515;-75
2023/12/17 02:01:11;;;;;;;17.90;9.77;;;9.10;85.00;;;;;;5006113;28;20046;-76
2023/12/17 02:03:37;;;;;;;17.83;13.07;;;9.00;85.00;;;;;;5015448;28;20053;-78
2023/12/17 02:06:06;;;;;;;14.10;8.83;;;9.10;84.80;;;;;;5026077;28;20069;-75
2023/12/17 02:08:32;;;;;;;16.90;9.10;;;9.10;84.90;;;;;;5025280;28;20052;-76
2023/12/17 02:10:58;;;;;;;21.03;9.50;;;9.00;84.90;;;;;;5023164;28;20050;-76
2023/12/17 02:13:23;;;;;;;13.97;8.60;;;9.10;84.90;;;;;;5026022;28;20047;-75
2023/12/17 02:15:49;;;;;;;15.77;9.13;;;9.00;84.90;;;;;;5025250;28;20080;-75
2023/12/17 02:18:15;;;;;;;17.40;8.87;;;9.00;84.80;;;;;;5025313;28;20037;-76
2023/12/17 02:20:43;;;;;;;17.20;8.57;;;9.00;84.80;;;;;;5005564;28;20065;-75
2023/12/17 02:23:10;;;;;;;22.30;9.40;;;9.00;85.00;;;;;;5006741;28;20401;-76
2023/12/17 02:25:36;;;;;;;15.10;8.47;;;9.00;84.80;;;;;;5005627;28;20453;-75
2023/12/17 02:28:01;;;;;;;16.13;8.87;;;9.00;84.70;;;;;;5007307;28;20045;-75
2023/12/17 02:30:27;;;;;;;21.37;9.73;;;9.00;84.80;;;;;;5019403;28;20110;-76
2023/12/17 02:32:53;;;;;;;18.33;12.90;;;9.00;84.90;;;;;;5017858;28;20058;-76
2023/12/17 02:35:18;;;;;;;16.87;8.47;;;9.00;84.80;;;;;;5005447;28;20050;-75
2023/12/17 02:37:44;;;;;;;13.90;8.50;;;9.00;84.80;;;;;;5006298;28;20273;-76
2023/12/17 02:40:10;;;;;;;14.07;8.90;;;9.00;84.90;;;;;;5006056;28;20046;-75
2023/12/17 02:42:37;;;;;;;19.70;8.77;;;9.00;84.90;;;;;;5012388;28;20058;-78
2023/12/17 02:45:03;;;;;;;15.33;9.43;;;9.00;84.70;;;;;;5020785;28;20103;-74
2023/12/17 02:47:29;;;;;;;17.13;9.83;;;9.00;84.70;;;;;;5006204;28;20049;-76
2023/12/17 02:49:55;;;;;;;12.47;7.97;;;9.00;84.70;;;;;;5017756;28;20482;-76
2023/12/17 02:52:20;;;;;;;17.03;8.47;;;9.00;84.60;;;;;;5025908;28;20452;-76
2023/12/17 02:54:48;;;;;;;16.40;8.60;;;9.00;84.60;;;;;;5020664;28;20492;-77
2023/12/17 02:57:14;;;;;;;15.90;8.43;;;9.00;84.60;;;;;;5006428;28;20100;-76
2023/12/17 02:59:40;;;;;;;15.73;9.90;;;9.00;84.60;;;;;;5017495;28;20128;-75
2023/12/17 03:02:05;;;;;;;19.20;8.87;;;9.00;84.40;;;;;;5028754;28;20049;-76
2023/12/17 03:04:31;;;;;;;18.50;8.23;;;9.00;84.40;;;;;;5028293;28;20124;-75
2023/12/17 03:06:57;;;;;;;15.53;9.00;;;9.00;84.40;;;;;;5029079;28;20053;-76
2023/12/17 03:09:22;;;;;;;22.00;17.53;;;9.00;84.40;;;;;;5027036;28;20053;-76
2023/12/17 03:11:48;;;;;;;17.97;8.77;;;9.00;84.30;;;;;;5027734;28;20053;-76
2023/12/17 03:14:14;;;;;;;20.00;11.07;;;9.00;84.40;;;;;;5029533;28;20454;-76
2023/12/17 03:16:42;;;;;;;12.87;8.87;;;9.00;84.40;;;;;;5027384;28;20136;-76
2023/12/17 03:19:08;;;;;;;20.77;14.30;;;9.00;84.30;;;;;;5023970;28;20049;-76
2023/12/17 03:21:33;;;;;;;14.20;9.77;;;9.00;84.20;;;;;;5008723;28;20371;-71
2023/12/17 03:23:59;;;;;;;15.10;9.03;;;9.00;84.20;;;;;;5009396;28;20050;-75
2023/12/17 03:26:25;;;;;;;16.93;10.23;;;9.00;84.10;;;;;;5009243;28;20069;-76
2023/12/17 03:28:51;;;;;;;14.10;8.83;;;9.00;84.20;;;;;;5009477;28;20100;-75
2023/12/17 03:31:17;;;;;;;15.73;9.53;;;9.00;84.20;;;;;;5009174;28;20061;-75
2023/12/17 03:33:44;;;;;;;15.73;9.20;;;9.00;84.30;;;;;;5023602;28;20049;-76
2023/12/17 03:36:14;;;;;;;20.33;10.07;;;9.00;84.10;;;;;;5028906;28;20059;-75
2023/12/17 03:38:41;;;;;;;18.77;9.50;;;9.00;84.10;;;;;;5029359;28;20049;-76
2023/12/17 03:41:18;;;;;;;17.83;9.87;;;9.00;84.20;;;;;;5026991;28;20052;-75
2023/12/17 03:43:44;;;;;;;15.73;9.67;;;9.00;84.10;;;;;;5024121;28;20060;-75
2023/12/17 03:46:10;;;;;;;15.30;10.17;;;9.00;84.20;;;;;;5028538;28;20057;-76
2023/12/17 03:48:35;;;;;;;21.63;10.17;;;9.00;84.10;;;;;;5028506;28;20053;-75
2023/12/17 03:51:01;;;;;;;13.87;9.10;;;9.00;84.20;;;;;;5027930;28;20045;-75
2023/12/17 03:53:27;;;;;;;23.73;11.20;;;8.90;84.20;;;;;;5028947;28;20092;-76
2023/12/17 03:55:52;;;;;;;16.97;9.67;;;8.90;84.30;;;;;;5042793;28;20042;-76
2023/12/17 03:58:18;;;;;;;20.37;10.20;;;8.90;84.30;;;;;;5029156;28;20539;-76
2023/12/17 04:00:44;;;;;;;17.57;9.37;;;9.00;84.40;;;;;;5027079;28;20598;-75
2023/12/17 04:03:09;;;;;;;18.53;11.07;;;8.90;84.40;;;;;;5024507;28;20641;-75
2023/12/17 04:05:35;;;;;;;17.67;10.50;;;8.90;84.30;;;;;;5008467;28;20050;-74
2023/12/17 04:08:00;;;;;;;22.30;11.03;;;8.90;84.30;;;;;;5015875;28;20428;-75
2023/12/17 04:10:26;;;;;;;18.60;10.33;;;8.90;84.40;;;;;;5025966;28;20053;-75
2023/12/17 04:12:52;;;;;;;17.23;10.17;;;8.90;84.40;;;;;;5028218;28;20064;-75
2023/12/17 04:15:18;;;;;;;21.33;10.50;;;8.90;84.30;;;;;;5028023;28;20860;-75
2023/12/17 04:17:43;;;;;;;19.13;11.43;;;8.90;84.40;;;;;;5027174;28;20124;-74
2023/12/17 04:20:09;;;;;;;18.83;10.20;;;8.90;84.30;;;;;;5026414;28;20048;-75
2023/12/17 04:22:35;;;;;;;16.17;11.07;;;8.90;84.40;;;;;;5026973;28;20056;-74
2023/12/17 04:25:01;;;;;;;17.30;10.77;;;8.90;84.40;;;;;;5027471;28;20268;-74
2023/12/17 04:27:26;;;;;;;19.23;10.93;;;8.90;84.30;;;;;;5026909;28;20065;-75
2023/12/17 04:29:52;;;;;;;17.77;11.03;;;8.90;84.20;;;;;;5027447;28;20448;-75
2023/12/17 04:32:18;;;;;;;23.40;10.80;;;8.90;84.30;;;;;;5025331;28;20590;-74
2023/12/17 04:34:43;;;;;;;21.40;10.97;;;8.90;84.30;;;;;;5008028;28;20050;-75
2023/12/17 04:37:09;;;;;;;20.03;11.47;;;8.90;84.20;;;;;;5008409;28;20041;-77
2023/12/17 04:39:35;;;;;;;18.70;11.33;;;8.90;84.10;;;;;;5008015;28;20041;-74
2023/12/17 04:42:00;;;;;;;21.13;12.07;;;8.90;84.20;;;;;;5014619;28;20057;-76
2023/12/17 04:44:26;;;;;;;18.93;12.03;;;8.90;84.00;;;;;;5007756;28;20069;-75
2023/12/17 04:46:52;;;;;;;18.00;10.17;;;8.90;84.00;;;;;;5007513;28;20497;-74
2023/12/17 04:49:17;;;;;;;18.27;11.43;;;8.90;84.00;;;;;;5015174;28;20469;-75
2023/12/17 04:51:43;;;;;;;29.13;20.67;;;8.90;83.90;;;;;;5027546;28;20061;-77
2023/12/17 04:54:09;;;;;;;16.77;12.10;;;8.90;83.70;;;;;;5027358;28;20053;-77
2023/12/17 04:56:35;;;;;;;19.93;12.43;;;8.90;83.70;;;;;;5005849;28;20120;-76
2023/12/17 04:59:00;;;;;;;24.10;16.73;;;8.90;83.50;;;;;;5010924;28;20049;-77
2023/12/17 05:01:26;;;;;;;21.07;12.20;;;8.90;83.50;;;;;;5026542;28;20053;-75
2023/12/17 05:03:51;;;;;;;19.60;13.43;;;8.90;83.50;;;;;;5020333;28;20060;-76
2023/12/17 05:06:17;;;;;;;24.20;12.33;;;8.90;83.70;;;;;;5026664;28;20473;-75
2023/12/17 05:08:43;;;;;;;18.20;12.77;;;8.80;83.80;;;;;;5027437;28;20098;-76
2023/12/17 05:11:08;;;;;;;19.63;12.13;;;8.80;83.70;;;;;;5026608;28;20049;-75
2023/12/17 05:13:34;;;;;;;27.97;17.13;;;8.80;83.60;;;;;;5026765;28;20072;-74
2023/12/17 05:16:00;;;;;;;20.90;12.20;;;8.80;83.50;;;;;;5025739;28;20527;-75
2023/12/17 05:18:25;;;;;;;22.93;15.13;;;8.80;83.60;;;;;;5026044;28;20060;-75
2023/12/17 05:20:51;;;;;;;22.13;11.90;;;8.80;83.50;;;;;;5025940;28;20130;-76
2023/12/17 05:23:17;;;;;;;18.87;12.20;;;8.80;83.50;;;;;;5042235;28;20100;-76
2023/12/17 05:25:42;;;;;;;25.73;19.03;;;8.80;83.60;;;;;;5025692;28;20053;-75
2023/12/17 05:28:09;;;;;;;17.13;11.47;;;8.70;83.50;;;;;;5026894;28;20046;-75
2023/12/17 05:30:35;;;;;;;19.50;11.07;;;8.70;83.60;;;;;;5023866;28;20053;-76
2023/12/17 05:33:01;;;;;;;20.70;10.93;;;8.70;83.50;;;;;;5023951;28;20060;-75
2023/12/17 05:35:27;;;;;;;22.63;14.17;;;8.60;83.50;;;;;;5023880;28;20107;-76
2023/12/17 05:37:53;;;;;;;25.30;16.40;;;8.60;83.50;;;;;;5023952;28;20045;-76
2023/12/17 05:40:18;;;;;;;22.83;11.47;;;8.60;83.40;;;;;;5022194;28;20041;-75
2023/12/17 05:42:44;;;;;;;20.00;13.27;;;8.60;83.50;;;;;;5022471;28;20053;-75
2023/12/17 05:45:10;;;;;;;29.10;14.37;;;8.60;83.40;;;;;;5023259;28;20447;-77
2023/12/17 05:47:35;;;;;;;26.13;15.23;;;8.60;83.50;;;;;;5024385;28;20471;-77
2023/12/17 05:50:03;;;;;;;23.57;14.03;;;8.60;83.40;;;;;;5024349;28;20045;-75
2023/12/17 05:52:29;;;;;;;22.77;13.37;;;8.60;83.40;;;;;;5024034;28;20103;-75
2023/12/17 05:54:54;;;;;;;21.77;13.97;;;8.60;83.50;;;;;;5023485;28;20050;-75
2023/12/17 05:57:21;;;;;;;24.13;14.87;;;8.60;83.50;;;;;;5023335;28;20057;-75
2023/12/17 05:59:46;;;;;;;28.83;19.30;;;8.60;83.60;;;;;;5022111;28;20110;-76
2023/12/17 06:02:12;;;;;;;27.03;17.23;;;8.60;83.50;;;;;;5021364;28;20053;-75
2023/12/17 06:04:38;;;;;;;26.60;14.63;;;8.60;83.50;;;;;;5023354;28;20132;-74
2023/12/17 06:07:03;;;;;;;25.87;14.27;;;8.60;83.60;;;;;;5022241;28;20501;-76
2023/12/17 06:09:29;;;;;;;23.70;13.47;;;8.60;83.60;;;;;;5022053;28;20457;-75
2023/12/17 06:11:57;;;;;;;24.83;15.83;;;8.60;83.60;;;;;;5004340;28;20141;-76
2023/12/17 06:14:23;;;;;;;23.30;13.53;;;8.60;83.50;;;;;;5025781;28;20060;-75
2023/12/17 06:16:49;;;;;;;21.50;12.87;;;8.60;83.50;;;;;;5024401;28;20057;-75
2023/12/17 06:19:15;;;;;;;26.33;16.50;;;8.60;83.50;;;;;;5022478;28;20053;-76
2023/12/17 06:21:40;;;;;;;22.90;16.40;;;8.60;83.50;;;;;;5034537;28;20088;-76
2023/12/17 06:24:07;;;;;;;33.93;23.43;;;8.60;83.40;;;;;;5042136;28;20077;-75
2023/12/17 06:26:36;;;;;;;19.90;12.77;;;8.60;83.50;;;;;;5042585;28;20056;-75
2023/12/17 06:29:02;;;;;;;31.03;14.73;;;8.60;83.50;;;;;;5036747;28;20148;-75
2023/12/17 06:31:28;;;;;;;27.90;16.07;;;8.60;83.50;;;;;;5020587;28;20403;-76
2023/12/17 06:33:54;;;;;;;23.23;14.33;;;8.60;83.60;;;;;;5018274;28;20056;-75
2023/12/17 06:36:20;;;;;;;22.47;13.90;;;8.60;83.50;;;;;;5041227;28;20048;-75
2023/12/17 06:38:47;;;;;;;25.17;15.20;;;8.60;83.60;;;;;;5023941;28;20475;-75
2023/12/17 06:41:13;;;;;;;28.97;15.93;;;8.60;83.70;;;;;;5018334;28;20053;-75
2023/12/17 06:43:42;;;;;;;27.03;15.93;;;8.60;83.80;;;;;;5029800;28;20329;-75
2023/12/17 06:46:09;;;;;;;44.70;32.27;;;8.60;83.70;;;;;;5023039;28;20052;-77
2023/12/17 06:48:35;;;;;;;28.57;15.73;;;8.60;83.70;;;;;;5023191;28;20053;-75
2023/12/17 06:51:01;;;;;;;25.23;16.47;;;8.50;83.70;;;;;;5041639;28;20056;-75
2023/12/17 06:53:27;;;;;;;27.70;20.13;;;8.50;83.80;;;;;;5033750;28;20187;-75
2023/12/17 06:55:53;;;;;;;27.43;14.57;;;8.50;83.80;;;;;;5026002;28;20067;-75
2023/12/17 06:58:18;;;;;;;29.67;17.83;;;8.50;83.90;;;;;;5024276;28;20049;-75
2023/12/17 07:00:44;;;;;;;28.77;15.53;;;8.50;84.00;;;;;;5021670;28;20053;-77
2023/12/17 07:03:10;;;;;;;24.67;17.90;;;8.50;84.00;;;;;;5021400;28;20049;-76
2023/12/17 07:05:35;;;;;;;26.90;17.47;;;8.50;84.00;;;;;;5022395;28;20056;-77
2023/12/17 07:08:01;;;;;;;27.80;14.43;;;8.50;84.00;;;;;;5022665;28;20041;-75
2023/12/17 07:10:27;;;;;;;27.50;15.10;;;8.50;84.10;;;;;;5022091;28;20049;-75
2023/12/17 07:12:52;;;;;;;29.87;17.47;;;8.50;84.00;;;;;;5022628;28;20096;-75
2023/12/17 07:15:18;;;;;;;30.23;18.83;;;8.50;84.00;;;;;;5021747;28;20053;-76
2023/12/17 07:17:44;;;;;;;34.20;24.77;;;8.50;84.10;;;;;;5020970;28;20042;-76
2023/12/17 07:20:10;;;;;;;28.00;21.30;;;8.50;84.10;;;;;;5022666;28;20084;-75
2023/12/17 07:22:36;;;;;;;29.23;18.97;;;8.50;84.00;;;;;;5022446;28;20564;-77
2023/12/17 07:25:02;;;;;;;27.97;19.17;;;8.50;84.20;;;;;;5022075;28;20072;-76
2023/12/17 07:27:28;;;;;;;32.30;19.40;;;8.50;84.10;;;;;;5021385;28;20702;-75
2023/12/17 07:29:54;;;;;;;32.67;20.13;;;8.50;84.30;;;;;;5011588;28;20049;-75
2023/12/17 07:32:19;;;;;;;33.50;19.47;;;8.50;84.30;;;;;;5021575;28;20058;-75
2023/12/17 07:34:45;;;;;;;33.00;18.47;;;8.50;84.40;;;;;;5022241;28;20080;-75
2023/12/17 07:37:11;;;;;;;30.20;18.13;;;8.50;84.50;;;;;;5020530;28;20053;-75
2023/12/17 07:39:37;;;;;;;32.60;17.93;;;8.50;84.50;;;;;;5024244;28;20057;-77
2023/12/17 07:42:03;;;;;;;37.20;18.03;;;8.50;84.50;;;;;;5022768;28;20049;-75
2023/12/17 07:44:30;;;;;;;33.00;16.97;;;8.50;84.60;;;;;;5028421;28;20464;-78
2023/12/17 07:46:56;;;;;;;39.50;20.60;;;8.50;84.60;;;;;;5028244;28;20309;-76
2023/12/17 07:49:22;;;;;;;45.30;26.00;;;8.50;84.70;;;;;;5029106;28;20057;-75
2023/12/17 07:51:49;;;;;;;36.33;18.90;;;8.50;84.80;;;;;;5025772;28;20048;-75
2023/12/17 07:54:15;;;;;;;51.27;30.73;;;8.50;84.70;;;;;;5025870;28;20410;-76
2023/12/17 07:56:41;;;;;;;48.30;28.17;;;8.40;84.80;;;;;;5025669;28;20064;-76
2023/12/17 07:59:06;;;;;;;70.93;37.63;;;8.40;84.90;;;;;;5023694;28;20074;-75
2023/12/17 08:01:33;;;;;;;28.37;15.70;;;8.40;84.80;;;;;;5024748;28;20053;-75
2023/12/17 08:03:59;;;;;;;29.37;15.93;;;8.40;84.80;;;;;;5025017;28;20156;-75
2023/12/17 08:06:25;;;;;;;34.33;23.13;;;8.40;84.70;;;;;;5024864;28;20148;-75
2023/12/17 08:08:52;;;;;;;26.17;14.33;;;8.40;84.60;;;;;;5027505;28;20053;-75
2023/12/17 08:11:17;;;;;;;24.83;14.83;;;8.40;84.50;;;;;;5024091;28;20054;-75
2023/12/17 08:13:44;;;;;;;31.23;17.90;;;8.40;84.40;;;;;;5021243;28;20049;-75
2023/12/17 08:16:10;;;;;;;29.50;14.13;;;8.40;84.30;;;;;;5025364;28;20080;-75
2023/12/17 08:18:35;;;;;;;28.27;14.67;;;8.40;84.40;;;;;;5038810;28;20132;-75
2023/12/17 08:21:02;;;;;;;25.73;14.60;;;8.40;84.30;;;;;;5015466;28;20128;-74
2023/12/17 08:23:28;;;;;;;32.60;15.70;;;8.40;84.40;;;;;;5024791;28;20058;-75
2023/12/17 08:25:54;;;;;;;25.97;14.37;;;8.40;84.40;;;;;;5024815;28;20057;-75
2023/12/17 08:28:21;;;;;;;28.00;13.33;;;8.30;84.40;;;;;;5019776;28;20108;-75
2023/12/17 08:30:47;;;;;;;27.87;14.50;;;8.30;84.30;;;;;;5023342;28;20077;-75
2023/12/17 08:33:13;;;;;;;22.33;13.57;;;8.30;84.30;;;;;;5023916;28;20503;-75
2023/12/17 08:35:39;;;;;;;25.10;14.20;;;8.30;84.20;;;;;;5022772;28;20045;-74
2023/12/17 08:38:06;;;;;;;23.67;13.17;;;8.30;84.20;;;;;;5024594;28;20041;-75
2023/12/17 08:40:33;;;;;;;26.47;13.23;;;8.30;84.20;;;;;;5024557;28;20053;-75
2023/12/17 08:43:00;;;;;;;24.17;14.57;;;8.30;84.30;;;;;;5006266;28;20121;-75
2023/12/17 08:45:26;;;;;;;29.37;15.17;;;8.30;84.20;;;;;;5006312;28;20197;-75
2023/12/17 08:47:51;;;;;;;28.63;16.80;;;8.30;84.10;;;;;;5023743;28;20061;-75
2023/12/17 08:50:17;;;;;;;27.63;16.17;;;8.30;83.90;;;;;;5006106;28;20435;-75
2023/12/17 08:52:44;;;;;;;43.93;27.37;;;8.30;84.00;;;;;;5024083;28;20057;-76
2023/12/17 08:55:10;;;;;;;31.97;18.33;;;8.30;84.20;;;;;;5018263;28;20061;-77
2023/12/17 08:57:37;;;;;;;28.40;16.03;;;8.30;84.10;;;;;;5020204;28;20060;-75
2023/12/17 09:00:04;;;;;;;41.13;22.67;;;8.30;84.10;;;;;;5024792;28;20476;-77
2023/12/17 09:02:31;;;;;;;39.83;21.43;;;8.30;84.20;;;;;;5023402;28;20413;-75
2023/12/17 09:04:57;;;;;;;29.73;19.27;;;8.30;84.30;;;;;;5024029;28;20103;-75
2023/12/17 09:07:23;;;;;;;35.37;19.20;;;8.30;84.40;;;;;;5023875;28;20057;-75
2023/12/17 09:09:49;;;;;;;39.93;27.43;;;8.30;84.30;;;;;;5003956;28;20048;-75
2023/12/17 09:12:16;;;;;;;39.00;19.33;;;8.30;84.30;;;;;;5023722;28;20133;-74
2023/12/17 09:14:42;;;;;;;40.17;20.30;;;8.40;84.40;;;;;;5022786;28;20485;-77
2023/12/17 09:17:08;;;;;;;39.30;23.10;;;8.40;84.40;;;;;;5023720;28;20052;-75
2023/12/17 09:19:34;;;;;;;39.10;20.80;;;8.40;84.40;;;;;;5024161;28;20054;-75
2023/12/17 09:21:59;;;;;;;41.07;20.33;;;8.40;84.30;;;;;;5023664;28;20045;-77
2023/12/17 09:24:25;;;;;;;31.77;18.67;;;8.40;84.20;;;;;;5023157;28;20400;-75
2023/12/17 09:26:51;;;;;;;37.67;19.77;;;8.40;84.20;;;;;;5022819;28;20061;-76
2023/12/17 09:29:16;;;;;;;50.40;26.33;;;8.40;84.10;;;;;;5023206;28;20049;-75
2023/12/17 09:31:42;;;;;;;48.53;23.20;;;8.40;84.10;;;;;;5022210;28;20057;-76
2023/12/17 09:34:08;;;;;;;41.10;16.80;;;8.40;84.20;;;;;;5022454;28;20103;-75
2023/12/17 09:36:33;;;;;;;35.73;17.47;;;8.50;84.20;;;;;;5023094;28;20057;-76
2023/12/17 09:38:59;;;;;;;47.00;19.30;;;8.50;84.10;;;;;;5022847;28;20104;-75
2023/12/17 09:41:28;;;;;;;43.43;17.27;;;8.50;84.00;;;;;;5019240;28;20058;-76
2023/12/17 09:43:54;;;;;;;67.53;40.27;;;8.50;84.10;;;;;;5009052;28;20080;-76
2023/12/17 09:46:20;;;;;;;30.07;15.27;;;8.50;83.70;;;;;;5022164;28;20552;-75
2023/12/17 09:48:47;;;;;;;36.73;19.27;;;8.50;83.80;;;;;;5022451;28;20045;-76
2023/12/17 09:51:13;;;;;;;31.40;14.27;;;8.50;83.70;;;;;;5022422;28;20110;-75
2023/12/17 09:53:39;;;;;;;40.80;15.53;;;8.60;83.80;;;;;;5023109;28;20102;-75
2023/12/17 09:56:05;;;;;;;36.47;14.20;;;8.60;83.50;;;;;;5022775;28;20501;-75
2023/12/17 09:58:31;;;;;;;37.37;14.90;;;8.60;83.50;;;;;;5023946;28;20061;-75
2023/12/17 10:00:57;;;;;;;36.93;16.13;;;8.60;83.60;;;;;;5022177;28;20158;-76
2023/12/17 10:03:23;;;;;;;30.43;14.40;;;8.60;83.40;;;;;;5023608;28;20179;-75
2023/12/17 10:05:53;;;;;;;33.23;15.13;;;8.60;83.10;;;;;;5021004;28;20493;-76
2023/12/17 10:08:19;;;;;;;32.67;14.40;;;8.60;83.00;;;;;;5020318;28;20298;-75
2023/12/17 10:10:45;;;;;;;36.80;17.07;;;8.60;83.10;;;;;;5020354;28;20084;-76
2023/12/17 10:13:21;;;;;;;29.43;15.27;;;8.60;82.80;;;;;;5022817;28;20544;-75
2023/12/17 10:15:51;;;;;;;32.47;13.17;;;8.60;82.80;;;;;;5020818;28;20464;-75
2023/12/17 10:18:17;;;;;;;39.97;22.17;;;8.60;82.80;;;;;;5004680;28;20527;-76
2023/12/17 10:20:45;;;;;;;30.03;14.80;;;8.60;82.60;;;;;;5022520;28;20444;-75
2023/12/17 10:23:11;;;;;;;50.27;28.40;;;8.60;82.70;;;;;;5023038;28;20120;-76
2023/12/17 10:25:37;;;;;;;35.30;17.87;;;8.60;82.40;;;;;;5022650;28;20418;-77
2023/12/17 10:28:02;;;;;;;44.60;23.13;;;8.60;82.30;;;;;;5023040;28;20049;-76
2023/12/17 10:30:32;;;;;;;43.63;25.77;;;8.50;82.10;;;;;;5021682;28;20049;-76
2023/12/17 10:33:00;;;;;;;37.90;21.80;;;8.50;82.20;;;;;;5022422;28;20064;-76
2023/12/17 10:35:26;;;;;;;37.87;23.03;;;8.60;82.30;;;;;;5022078;28;20502;-75
2023/12/17 10:37:57;;;;;;;51.10;34.03;;;8.60;82.40;;;;;;5020493;28;20053;-75
2023/12/17 10:40:24;;;;;;;45.97;22.95;;;8.60;82.30;;;;;;5018947;28;20060;-74
2023/12/17 10:42:51;;;;;;;44.87;27.13;;;8.60;82.40;;;;;;5016948;28;20075;-76
2023/12/17 10:45:21;;;;;;;48.80;29.43;;;8.60;82.30;;;;;;5021479;28;20053;-75
2023/12/17 10:47:52;;;;;;;58.97;37.20;;;8.60;82.30;;;;;;5021374;28;20637;-76
2023/12/17 10:50:18;;;;;;;54.13;31.98;;;8.60;82.30;;;;;;5022218;28;20057;-76
2023/12/17 10:52:46;;;;;;;41.10;26.03;;;8.60;82.40;;;;;;5021523;28;20477;-75
2023/12/17 10:55:12;;;;;;;42.23;22.23;;;8.60;82.50;;;;;;5019624;28;20400;-76
2023/12/17 10:57:40;;;;;;;47.20;24.93;;;8.60;82.60;;;;;;5020175;28;20061;-75
2023/12/17 11:00:08;;;;;;;43.97;23.17;;;8.60;82.40;;;;;;5021724;28;20056;-75
2023/12/17 11:02:34;;;;;;;41.83;24.87;;;8.60;82.40;;;;;;5034319;28;20054;-76
2023/12/17 11:05:00;;;;;;;40.40;25.17;;;8.60;82.10;;;;;;5020434;28;20049;-75
2023/12/17 11:07:26;;;;;;;43.73;28.43;;;8.70;82.00;;;;;;5021785;28;20835;-76
2023/12/17 11:09:52;;;;;;;39.33;25.80;;;8.70;81.80;;;;;;5021476;28;20132;-76
2023/12/17 11:12:18;;;;;;;44.87;27.03;;;8.70;82.00;;;;;;5022417;28;20586;-76
2023/12/17 11:14:45;;;;;;;50.43;30.00;;;8.70;82.10;;;;;;5023692;28;20053;-76
2023/12/17 11:17:14;;;;;;;47.50;30.27;;;8.80;82.40;;;;;;5032950;28;20176;-76
2023/12/17 11:19:56;;;;;;;56.17;36.80;;;8.80;82.00;;;;;;5031526;28;20057;-75
2023/12/17 11:22:23;;;;;;;51.43;30.87;;;8.80;81.80;;;;;;5027630;28;20052;-75
2023/12/17 11:24:50;;;;;;;40.10;26.63;;;8.80;81.70;;;;;;5033135;28;20129;-75
2023/12/17 11:27:22;;;;;;;43.20;31.60;;;8.90;81.50;;;;;;5042505;28;20404;-76
2023/12/17 11:29:47;;;;;;;40.87;25.90;;;8.90;80.90;;;;;;5031265;28;20801;-75
2023/12/17 11:32:14;;;;;;;48.27;26.13;;;8.90;80.90;;;;;;5037439;28;20132;-75
2023/12/17 11:34:40;;;;;;;44.07;27.77;;;9.00;81.20;;;;;;5035637;28;20053;-74
2023/12/17 11:37:06;;;;;;;44.80;28.40;;;9.00;81.40;;;;;;5038554;28;20400;-75
2023/12/17 11:39:34;;;;;;;46.13;29.23;;;9.20;81.30;;;;;;5026671;28;20083;-75
2023/12/17 11:41:59;;;;;;;43.97;29.77;;;9.20;81.10;;;;;;5022828;28;20136;-76
2023/12/17 11:44:25;;;;;;;41.53;26.53;;;9.20;80.40;;;;;;5034926;28;20151;-75
2023/12/17 11:46:51;;;;;;;38.20;29.97;;;9.30;80.80;;;;;;5024031;28;20496;-76
2023/12/17 11:49:26;;;;;;;41.00;27.73;;;9.40;80.80;;;;;;5027672;28;20496;-75
2023/12/17 11:51:53;;;;;;;36.47;24.00;;;9.40;80.10;;;;;;5026557;28;20140;-75
2023/12/17 11:54:20;;;;;;;36.80;24.57;;;9.40;80.20;;;;;;5025074;28;20137;-75
2023/12/17 11:56:47;;;;;;;38.87;27.23;;;9.40;80.10;;;;;;5021442;28;20044;-75
2023/12/17 11:59:13;;;;;;;35.43;21.87;;;9.40;80.30;;;;;;5027558;28;20587;-75
2023/12/17 12:01:39;;;;;;;76.77;52.67;;;9.40;80.50;;;;;;5026799;28;20058;-76
2023/12/17 12:04:05;;;;;;;44.03;28.30;;;9.30;79.80;;;;;;5028066;28;20825;-76
2023/12/17 12:06:31;;;;;;;40.87;23.63;;;9.30;80.20;;;;;;5027543;28;20056;-75
2023/12/17 12:08:59;;;;;;;39.47;26.03;;;9.20;79.80;;;;;;4952937;28;20393;-77
2023/12/17 12:11:33;;;;;;;33.53;22.27;;;9.20;80.20;;;;;;5012614;28;20050;-76
2023/12/17 12:13:59;;;;;;;38.20;24.47;;;9.20;80.00;;;;;;5015287;28;20535;-75
2023/12/17 12:16:25;;;;;;;33.83;24.40;;;9.20;80.00;;;;;;5013401;28;20065;-75
2023/12/17 12:19:03;;;;;;;34.33;20.27;;;9.20;80.00;;;;;;5013364;28;20056;-75
2023/12/17 12:21:29;;;;;;;34.50;24.97;;;9.30;80.00;;;;;;5013641;28;20053;-75
2023/12/17 12:23:56;;;;;;;33.20;19.63;;;9.40;79.50;;;;;;4997532;28;20038;-75
2023/12/17 12:26:23;;;;;;;31.13;23.10;;;9.40;79.60;;;;;;5016384;28;20501;-75
2023/12/17 12:28:59;;;;;;;33.07;21.90;;;9.40;79.70;;;;;;5013849;28;20049;-75
2023/12/17 12:31:26;;;;;;;37.23;26.33;;;9.60;79.20;;;;;;4996478;28;20124;-75
2023/12/17 12:33:59;;;;;;;32.93;23.27;;;9.70;78.60;;;;;;5014380;28;20056;-75